Date,TemperatureHighF,TemperatureAvgF,TemperatureLowF,DewpointHighF,DewpointAvgF,DewpointLowF,HumidityHigh,HumidityAvg,HumidityLow,PressureMaxIn,PressureMinIn,WindSpeedMaxMPH,WindSpeedAvgMPH,GustSpeedMaxMPH,PrecipitationSumIn
2013-3-1,48.0,40.4,34.9,36.9,31.8,27.3,96,73,47,29.70,29.54,20,4,20,0.00
2013-3-2,39.9,37.2,31.6,29.5,27.9,25.9,83,69,62,29.72,29.65,16,4,17,0.00
2013-3-3,41.7,35.8,31.5,29.5,27.2,24.6,89,71,57,29.67,29.58,17,5,17,0.00
2013-3-4,41.4,34.0,28.9,28.4,23.7,21.4,88,66,53,29.77,29.62,30,10,30,0.00
2013-3-5,45.5,36.4,30.2,33.8,27.6,22.3,94,71,55,30.08,29.77,21,5,21,0.00
2013-3-6,41.7,37.6,29.5,36.3,34.1,27.7,95,87,70,30.05,29.91,40,11,43,0.00
2013-3-7,35.4,33.5,31.5,35.1,32.3,28.9,99,95,86,29.95,29.86,42,16,42,0.00
2013-3-8,40.8,33.8,30.4,34.0,29.5,24.1,98,86,53,30.09,29.88,38,13,38,0.00
2013-3-9,46.0,38.8,31.3,31.3,26.9,21.7,93,63,49,30.34,30.08,29,8,30,0.00
2013-3-10,42.4,36.1,30.9,34.7,32.2,29.1,96,86,72,30.42,30.34,16,3,17,0.00
2013-3-11,45.9,41.1,36.0,42.3,38.8,34.5,98,92,87,30.36,30.18,14,5,14,0.00
2013-3-12,50.4,47.7,41.2,50.4,47.0,40.6,100,98,93,30.19,29.76,36,10,36,0.51
2013-3-13,52.0,43.8,31.3,48.4,32.8,23.5,100,68,37,29.82,29.73,22,6,23,0.52
2013-3-14,36.0,32.2,27.1,29.7,19.7,10.8,90,61,40,29.89,29.76,33,8,33,0.04
2013-3-15,40.8,32.8,26.1,29.8,18.4,7.2,75,56,34,29.92,29.70,30,7,30,0.00
2013-3-16,39.6,34.8,30.9,29.3,21.5,11.5,81,59,33,29.89,29.73,18,5,20,0.00
2013-3-17,38.8,32.9,27.5,28.2,16.2,5.7,83,53,26,30.32,29.89,23,5,23,0.00
2013-3-18,34.0,29.2,21.7,30.7,15.8,4.1,97,58,40,30.46,30.20,17,5,17,0.00
2013-3-19,39.7,35.6,31.5,39.7,35.0,30.7,100,98,93,30.20,29.55,31,10,32,0.99
2013-3-20,41.5,35.1,28.8,31.5,24.3,18.7,96,67,40,29.84,29.71,29,7,34,0.00
2013-3-21,38.5,32.8,27.3,31.5,27.0,21.6,97,80,58,29.85,29.61,17,3,18,0.00
2013-3-22,39.9,34.1,26.6,29.8,20.0,15.6,97,57,41,29.81,29.64,24,7,25,0.02
2013-3-23,44.1,37.0,29.5,25.2,21.7,17.6,78,56,36,29.86,29.69,35,9,35,0.00
2013-3-24,47.1,37.7,30.4,32.9,25.9,20.3,87,63,40,29.88,29.73,22,5,22,0.00
2013-3-25,43.7,37.4,31.8,35.4,31.4,27.5,98,79,55,29.78,29.46,27,7,30,0.03
2013-3-26,47.3,39.2,29.5,34.0,29.4,25.0,94,70,43,29.82,29.50,18,4,18,0.00
2013-3-27,52.9,42.2,28.2,31.3,25.4,21.9,81,54,31,29.88,29.77,24,5,24,0.00
2013-3-28,48.7,42.0,37.9,37.2,33.5,30.7,90,72,52,30.05,29.87,20,4,20,0.00
2013-3-29,56.1,46.5,37.8,39.4,33.9,29.8,90,63,40,30.08,29.99,23,5,23,0.00
2013-3-30,57.4,47.0,38.7,34.9,29.9,16.5,84,54,22,30.13,30.02,20,4,20,0.00
2013-3-31,47.7,41.3,28.9,43.7,37.1,27.1,97,85,70,30.15,29.71,22,5,23,0.20